sensor_id;sensor_type;location;lat;lon;timestamp;temperature;humidity
11505;DHT22;5809;53.262;10.408;2023-05-14T00:01:53;12.40;99.90
11505;DHT22;5809;53.262;10.408;2023-05-14T00:04:21;12.30;99.90
11505;DHT22;5809;53.262;10.408;2023-05-14T00:09:15;11.90;99.90
11505;DHT22;5809;53.262;10.408;2023-05-14T00:11:42;11.60;99.90
11505;DHT22;5809;53.262;10.408;2023-05-14T00:14:09;11.60;99.90
11505;DHT22;5809;53.262;10.408;2023-05-14T00:19:03;11.70;99.90
11505;DHT22;5809;53.262;10.408;2023-05-14T00:21:31;11.80;99.90
11505;DHT22;5809;53.262;10.408;2023-05-14T00:23:58;11.90;99.90
11505;DHT22;5809;53.262;10.408;2023-05-14T00:26:25;11.90;99.90
11505;DHT22;5809;53.262;10.408;2023-05-14T00:28:52;11.90;99.90
11505;DHT22;5809;53.262;10.408;2023-05-14T00:31:19;11.90;99.90
11505;DHT22;5809;53.262;10.408;2023-05-14T00:33:46;11.90;99.90
11505;DHT22;5809;53.262;10.408;2023-05-14T00:36:13;11.90;99.90
11505;DHT22;5809;53.262;10.408;2023-05-14T00:38:41;11.90;99.90
11505;DHT22;5809;53.262;10.408;2023-05-14T00:41:08;11.80;99.90
11505;DHT22;5809;53.262;10.408;2023-05-14T00:48:36;11.70;99.90
11505;DHT22;5809;53.262;10.408;2023-05-14T00:51:05;11.60;99.90
11505;DHT22;5809;53.262;10.408;2023-05-14T00:53:33;11.60;99.90
11505;DHT22;5809;53.262;10.408;2023-05-14T00:56:02;11.60;99.90
11505;DHT22;5809;53.262;10.408;2023-05-14T00:58:29;11.60;99.90
11505;DHT22;5809;53.262;10.408;2023-05-14T01:00:56;11.60;99.90
11505;DHT22;5809;53.262;10.408;2023-05-14T01:05:57;11.40;99.90
11505;DHT22;5809;53.262;10.408;2023-05-14T01:08:31;11.40;99.90
11505;DHT22;5809;53.262;10.408;2023-05-14T01:11:06;11.30;99.90
11505;DHT22;5809;53.262;10.408;2023-05-14T01:13:52;11.30;99.90
11505;DHT22;5809;53.262;10.408;2023-05-14T01:16:26;11.20;99.90
11505;DHT22;5809;53.262;10.408;2023-05-14T01:18:53;11.20;99.90
11505;DHT22;5809;53.262;10.408;2023-05-14T01:21:35;11.10;99.90
11505;DHT22;5809;53.262;10.408;2023-05-14T01:24:03;11.10;99.90
11505;DHT22;5809;53.262;10.408;2023-05-14T01:29:00;11.00;99.90
11505;DHT22;5809;53.262;10.408;2023-05-14T01:31:30;11.00;99.90
11505;DHT22;5809;53.262;10.408;2023-05-14T01:34:00;11.00;99.90
11505;DHT22;5809;53.262;10.408;2023-05-14T01:36:29;11.10;99.90
11505;DHT22;5809;53.262;10.408;2023-05-14T01:38:58;11.10;99.90
11505;DHT22;5809;53.262;10.408;2023-05-14T01:41:26;11.10;99.90
11505;DHT22;5809;53.262;10.408;2023-05-14T01:46:21;10.90;99.90
11505;DHT22;5809;53.262;10.408;2023-05-14T01:48:49;10.80;99.90
11505;DHT22;5809;53.262;10.408;2023-05-14T01:51:16;10.80;99.90
11505;DHT22;5809;53.262;10.408;2023-05-14T01:53:44;10.70;99.90
11505;DHT22;5809;53.262;10.408;2023-05-14T01:56:11;10.60;99.90
11505;DHT22;5809;53.262;10.408;2023-05-14T01:58:38;10.60;99.90
11505;DHT22;5809;53.262;10.408;2023-05-14T02:03:32;10.50;99.90
11505;DHT22;5809;53.262;10.408;2023-05-14T02:10:55;10.40;99.90
11505;DHT22;5809;53.262;10.408;2023-05-14T02:13:21;10.40;99.90
11505;DHT22;5809;53.262;10.408;2023-05-14T02:15:48;10.40;99.90
11505;DHT22;5809;53.262;10.408;2023-05-14T02:18:15;10.30;99.90
11505;DHT22;5809;53.262;10.408;2023-05-14T02:20:42;10.30;99.90
11505;DHT22;5809;53.262;10.408;2023-05-14T02:23:09;10.30;99.90
11505;DHT22;5809;53.262;10.408;2023-05-14T02:25:36;10.10;99.90
11505;DHT22;5809;53.262;10.408;2023-05-14T02:28:05;10.10;99.90
11505;DHT22;5809;53.262;10.408;2023-05-14T02:30:31;10.10;99.90
11505;DHT22;5809;53.262;10.408;2023-05-14T02:32:58;10.10;99.90
11505;DHT22;5809;53.262;10.408;2023-05-14T02:35:25;10.10;99.90
11505;DHT22;5809;53.262;10.408;2023-05-14T02:37:52;10.10;99.90
11505;DHT22;5809;53.262;10.408;2023-05-14T02:40:19;10.00;99.90
11505;DHT22;5809;53.262;10.408;2023-05-14T02:42:46;10.00;99.90
11505;DHT22;5809;53.262;10.408;2023-05-14T02:45:15;9.90;99.90
11505;DHT22;5809;53.262;10.408;2023-05-14T02:47:41;9.80;99.90
11505;DHT22;5809;53.262;10.408;2023-05-14T02:50:09;9.60;99.90
11505;DHT22;5809;53.262;10.408;2023-05-14T02:52:36;9.50;99.90
11505;DHT22;5809;53.262;10.408;2023-05-14T02:55:03;9.50;99.90
11505;DHT22;5809;53.262;10.408;2023-05-14T03:02:26;9.50;99.90
11505;DHT22;5809;53.262;10.408;2023-05-14T03:04:53;9.50;99.90
11505;DHT22;5809;53.262;10.408;2023-05-14T03:07:20;9.50;99.90
11505;DHT22;5809;53.262;10.408;2023-05-14T03:09:47;9.50;99.90
11505;DHT22;5809;53.262;10.408;2023-05-14T03:12:13;9.50;99.90
11505;DHT22;5809;53.262;10.408;2023-05-14T03:14:40;9.60;99.90
11505;DHT22;5809;53.262;10.408;2023-05-14T03:17:07;9.60;99.90
11505;DHT22;5809;53.262;10.408;2023-05-14T03:19:35;9.70;99.90
11505;DHT22;5809;53.262;10.408;2023-05-14T03:22:02;9.70;99.90
11505;DHT22;5809;53.262;10.408;2023-05-14T03:24:29;9.70;99.90
11505;DHT22;5809;53.262;10.408;2023-05-14T03:26:56;9.80;99.90
11505;DHT22;5809;53.262;10.408;2023-05-14T03:29:23;9.70;99.90
11505;DHT22;5809;53.262;10.408;2023-05-14T03:31:50;9.80;99.90
11505;DHT22;5809;53.262;10.408;2023-05-14T03:34:18;9.70;99.90
11505;DHT22;5809;53.262;10.408;2023-05-14T03:36:47;8.40;99.90
11505;DHT22;5809;53.262;10.408;2023-05-14T03:39:14;9.70;99.90
11505;DHT22;5809;53.262;10.408;2023-05-14T03:41:44;9.70;99.90
11505;DHT22;5809;53.262;10.408;2023-05-14T03:44:12;9.80;99.90
11505;DHT22;5809;53.262;10.408;2023-05-14T03:46:39;9.70;99.90
11505;DHT22;5809;53.262;10.408;2023-05-14T03:49:06;9.80;99.90
11505;DHT22;5809;53.262;10.408;2023-05-14T03:51:33;9.90;99.90
11505;DHT22;5809;53.262;10.408;2023-05-14T03:54:02;9.90;99.90
11505;DHT22;5809;53.262;10.408;2023-05-14T03:56:29;9.90;99.90
11505;DHT22;5809;53.262;10.408;2023-05-14T03:58:56;9.90;99.90
11505;DHT22;5809;53.262;10.408;2023-05-14T04:01:23;9.90;99.90
11505;DHT22;5809;53.262;10.408;2023-05-14T04:03:50;10.00;99.90
11505;DHT22;5809;53.262;10.408;2023-05-14T04:06:17;10.00;99.90
11505;DHT22;5809;53.262;10.408;2023-05-14T04:08:44;10.00;99.90
11505;DHT22;5809;53.262;10.408;2023-05-14T04:11:12;9.90;99.90
11505;DHT22;5809;53.262;10.408;2023-05-14T04:13:39;10.00;99.90
11505;DHT22;5809;53.262;10.408;2023-05-14T04:16:06;9.90;99.90
11505;DHT22;5809;53.262;10.408;2023-05-14T04:18:32;9.90;99.90
11505;DHT22;5809;53.262;10.408;2023-05-14T04:21:00;9.90;99.90
11505;DHT22;5809;53.262;10.408;2023-05-14T04:23:27;9.90;99.90
11505;DHT22;5809;53.262;10.408;2023-05-14T04:25:56;9.90;99.90
11505;DHT22;5809;53.262;10.408;2023-05-14T04:28:24;9.90;99.90
11505;DHT22;5809;53.262;10.408;2023-05-14T04:30:51;10.00;99.90
11505;DHT22;5809;53.262;10.408;2023-05-14T04:33:18;10.00;99.90
11505;DHT22;5809;53.262;10.408;2023-05-14T04:35:45;10.00;99.90
11505;DHT22;5809;53.262;10.408;2023-05-14T04:38:13;10.00;99.90
11505;DHT22;5809;53.262;10.408;2023-05-14T04:40:40;10.00;99.90
11505;DHT22;5809;53.262;10.408;2023-05-14T04:43:07;10.10;99.90
11505;DHT22;5809;53.262;10.408;2023-05-14T04:45:35;10.10;99.90
11505;DHT22;5809;53.262;10.408;2023-05-14T04:48:03;10.10;99.90
11505;DHT22;5809;53.262;10.408;2023-05-14T04:50:32;10.20;99.90
11505;DHT22;5809;53.262;10.408;2023-05-14T04:52:59;10.30;99.90
11505;DHT22;5809;53.262;10.408;2023-05-14T04:55:26;10.40;99.90
11505;DHT22;5809;53.262;10.408;2023-05-14T04:57:52;10.60;99.90
11505;DHT22;5809;53.262;10.408;2023-05-14T05:00:19;10.80;99.90
11505;DHT22;5809;53.262;10.408;2023-05-14T05:02:49;10.90;99.90
11505;DHT22;5809;53.262;10.408;2023-05-14T05:05:16;11.00;99.90
11505;DHT22;5809;53.262;10.408;2023-05-14T05:07:43;11.20;99.90
11505;DHT22;5809;53.262;10.408;2023-05-14T05:10:10;11.40;99.90
11505;DHT22;5809;53.262;10.408;2023-05-14T05:12:37;11.60;99.90
11505;DHT22;5809;53.262;10.408;2023-05-14T05:15:04;11.70;99.90
11505;DHT22;5809;53.262;10.408;2023-05-14T05:17:31;11.90;99.90
11505;DHT22;5809;53.262;10.408;2023-05-14T05:20:00;12.10;99.90
11505;DHT22;5809;53.262;10.408;2023-05-14T05:22:27;12.30;99.90
11505;DHT22;5809;53.262;10.408;2023-05-14T05:24:54;12.50;99.90
11505;DHT22;5809;53.262;10.408;2023-05-14T05:27:20;12.80;99.90
11505;DHT22;5809;53.262;10.408;2023-05-14T05:29:47;13.10;99.90
11505;DHT22;5809;53.262;10.408;2023-05-14T05:32:14;13.50;99.90
11505;DHT22;5809;53.262;10.408;2023-05-14T05:34:41;13.90;99.90
11505;DHT22;5809;53.262;10.408;2023-05-14T05:37:09;14.20;99.90
11505;DHT22;5809;53.262;10.408;2023-05-14T05:39:38;14.30;99.90
11505;DHT22;5809;53.262;10.408;2023-05-14T05:42:06;14.20;99.90
11505;DHT22;5809;53.262;10.408;2023-05-14T05:44:33;14.20;99.90
11505;DHT22;5809;53.262;10.408;2023-05-14T05:47:00;14.30;99.90
11505;DHT22;5809;53.262;10.408;2023-05-14T05:49:26;14.30;99.90
11505;DHT22;5809;53.262;10.408;2023-05-14T05:51:53;14.50;99.90
11505;DHT22;5809;53.262;10.408;2023-05-14T05:54:22;14.60;99.90
11505;DHT22;5809;53.262;10.408;2023-05-14T05:56:50;14.80;99.90
11505;DHT22;5809;53.262;10.408;2023-05-14T05:59:17;14.90;99.90
11505;DHT22;5809;53.262;10.408;2023-05-14T06:01:43;15.10;99.90
11505;DHT22;5809;53.262;10.408;2023-05-14T06:04:10;15.50;99.90
11505;DHT22;5809;53.262;10.408;2023-05-14T06:06:37;15.80;99.90
11505;DHT22;5809;53.262;10.408;2023-05-14T06:09:04;15.90;99.90
11505;DHT22;5809;53.262;10.408;2023-05-14T06:11:34;16.00;99.90
11505;DHT22;5809;53.262;10.408;2023-05-14T06:14:01;15.80;99.90
11505;DHT22;5809;53.262;10.408;2023-05-14T06:16:29;15.80;99.90
11505;DHT22;5809;53.262;10.408;2023-05-14T06:18:56;15.80;99.90
11505;DHT22;5809;53.262;10.408;2023-05-14T06:21:22;15.80;99.90
11505;DHT22;5809;53.262;10.408;2023-05-14T06:23:49;15.90;99.90
11505;DHT22;5809;53.262;10.408;2023-05-14T06:26:16;16.00;99.90
11505;DHT22;5809;53.262;10.408;2023-05-14T06:28:44;16.30;99.90
11505;DHT22;5809;53.262;10.408;2023-05-14T06:31:11;16.50;99.90
11505;DHT22;5809;53.262;10.408;2023-05-14T06:33:39;16.90;99.90
11505;DHT22;5809;53.262;10.408;2023-05-14T06:36:06;17.30;99.90
11505;DHT22;5809;53.262;10.408;2023-05-14T06:38:33;17.60;99.90
11505;DHT22;5809;53.262;10.408;2023-05-14T06:41:00;17.60;99.90
11505;DHT22;5809;53.262;10.408;2023-05-14T06:43:27;17.40;99.90
11505;DHT22;5809;53.262;10.408;2023-05-14T06:45:55;17.90;99.90
11505;DHT22;5809;53.262;10.408;2023-05-14T06:48:22;17.90;99.90
11505;DHT22;5809;53.262;10.408;2023-05-14T06:50:52;18.00;99.90
11505;DHT22;5809;53.262;10.408;2023-05-14T06:53:19;18.30;99.90
11505;DHT22;5809;53.262;10.408;2023-05-14T06:55:46;19.10;99.90
11505;DHT22;5809;53.262;10.408;2023-05-14T06:58:13;19.70;99.90
11505;DHT22;5809;53.262;10.408;2023-05-14T07:00:40;19.90;99.90
11505;DHT22;5809;53.262;10.408;2023-05-14T07:03:08;20.30;99.90
11505;DHT22;5809;53.262;10.408;2023-05-14T07:05:35;20.40;99.90
11505;DHT22;5809;53.262;10.408;2023-05-14T07:08:02;20.30;99.90
11505;DHT22;5809;53.262;10.408;2023-05-14T07:10:29;20.90;99.90
11505;DHT22;5809;53.262;10.408;2023-05-14T07:12:57;21.00;99.90
11505;DHT22;5809;53.262;10.408;2023-05-14T07:15:24;20.90;99.90
11505;DHT22;5809;53.262;10.408;2023-05-14T07:17:51;21.20;99.90
11505;DHT22;5809;53.262;10.408;2023-05-14T07:20:19;21.70;99.90
11505;DHT22;5809;53.262;10.408;2023-05-14T07:22:48;22.00;99.90
11505;DHT22;5809;53.262;10.408;2023-05-14T07:25:15;22.20;99.90
11505;DHT22;5809;53.262;10.408;2023-05-14T07:27:42;22.50;99.90
11505;DHT22;5809;53.262;10.408;2023-05-14T07:30:09;22.20;99.90
11505;DHT22;5809;53.262;10.408;2023-05-14T07:32:36;21.00;99.90
11505;DHT22;5809;53.262;10.408;2023-05-14T07:35:03;20.70;99.90
11505;DHT22;5809;53.262;10.408;2023-05-14T07:37:32;21.00;99.90
11505;DHT22;5809;53.262;10.408;2023-05-14T07:39:59;20.60;99.90
11505;DHT22;5809;53.262;10.408;2023-05-14T07:42:25;20.50;99.90
11505;DHT22;5809;53.262;10.408;2023-05-14T07:44:52;20.30;99.90
11505;DHT22;5809;53.262;10.408;2023-05-14T07:47:19;20.40;99.90
11505;DHT22;5809;53.262;10.408;2023-05-14T07:49:46;20.70;99.90
11505;DHT22;5809;53.262;10.408;2023-05-14T07:52:13;21.30;99.90
11505;DHT22;5809;53.262;10.408;2023-05-14T07:54:41;21.70;99.90
11505;DHT22;5809;53.262;10.408;2023-05-14T07:57:08;21.80;99.90
11505;DHT22;5809;53.262;10.408;2023-05-14T07:59:35;21.80;99.90
11505;DHT22;5809;53.262;10.408;2023-05-14T08:02:02;22.10;99.90
11505;DHT22;5809;53.262;10.408;2023-05-14T08:04:29;22.10;99.90
11505;DHT22;5809;53.262;10.408;2023-05-14T08:06:56;21.70;99.90
11505;DHT22;5809;53.262;10.408;2023-05-14T08:09:23;21.60;99.90
11505;DHT22;5809;53.262;10.408;2023-05-14T08:11:52;22.10;99.90
11505;DHT22;5809;53.262;10.408;2023-05-14T08:14:19;22.50;99.90
11505;DHT22;5809;53.262;10.408;2023-05-14T08:16:46;22.90;99.90
11505;DHT22;5809;53.262;10.408;2023-05-14T08:19:14;23.70;99.90
11505;DHT22;5809;53.262;10.408;2023-05-14T08:21:41;23.60;99.90
11505;DHT22;5809;53.262;10.408;2023-05-14T08:24:08;24.20;99.90
11505;DHT22;5809;53.262;10.408;2023-05-14T08:26:34;24.40;99.90
11505;DHT22;5809;53.262;10.408;2023-05-14T08:29:04;24.40;99.90
11505;DHT22;5809;53.262;10.408;2023-05-14T08:31:31;24.70;99.90
11505;DHT22;5809;53.262;10.408;2023-05-14T08:33:58;25.70;99.90
11505;DHT22;5809;53.262;10.408;2023-05-14T08:36:25;26.10;99.90
11505;DHT22;5809;53.262;10.408;2023-05-14T08:38:52;25.30;99.90
11505;DHT22;5809;53.262;10.408;2023-05-14T08:41:18;24.80;99.90
11505;DHT22;5809;53.262;10.408;2023-05-14T08:43:55;24.20;99.90
11505;DHT22;5809;53.262;10.408;2023-05-14T08:46:25;24.80;99.90
11505;DHT22;5809;53.262;10.408;2023-05-14T08:48:57;25.00;99.90
11505;DHT22;5809;53.262;10.408;2023-05-14T08:51:27;23.80;99.90
11505;DHT22;5809;53.262;10.408;2023-05-14T08:53:54;24.10;99.90
11505;DHT22;5809;53.262;10.408;2023-05-14T08:56:22;24.50;99.90
11505;DHT22;5809;53.262;10.408;2023-05-14T08:58:49;24.30;99.90
11505;DHT22;5809;53.262;10.408;2023-05-14T09:01:16;24.20;99.90
11505;DHT22;5809;53.262;10.408;2023-05-14T09:03:46;24.40;99.90
11505;DHT22;5809;53.262;10.408;2023-05-14T09:06:13;24.00;99.90
11505;DHT22;5809;53.262;10.408;2023-05-14T09:08:40;24.90;99.90
11505;DHT22;5809;53.262;10.408;2023-05-14T09:11:07;24.60;99.90
11505;DHT22;5809;53.262;10.408;2023-05-14T09:13:38;24.20;99.90
11505;DHT22;5809;53.262;10.408;2023-05-14T09:16:06;24.00;99.90
11505;DHT22;5809;53.262;10.408;2023-05-14T09:18:34;24.30;99.90
11505;DHT22;5809;53.262;10.408;2023-05-14T09:21:03;24.20;99.90
11505;DHT22;5809;53.262;10.408;2023-05-14T09:23:31;24.60;99.90
11505;DHT22;5809;53.262;10.408;2023-05-14T09:26:03;24.60;99.90
11505;DHT22;5809;53.262;10.408;2023-05-14T09:28:30;24.70;99.90
11505;DHT22;5809;53.262;10.408;2023-05-14T09:30:57;24.50;99.90
11505;DHT22;5809;53.262;10.408;2023-05-14T09:33:28;24.90;99.90
11505;DHT22;5809;53.262;10.408;2023-05-14T09:35:58;25.10;99.90
11505;DHT22;5809;53.262;10.408;2023-05-14T09:38:28;25.50;99.90
11505;DHT22;5809;53.262;10.408;2023-05-14T09:40:56;26.20;99.90
11505;DHT22;5809;53.262;10.408;2023-05-14T09:43:23;24.00;99.90
11505;DHT22;5809;53.262;10.408;2023-05-14T09:45:50;23.00;99.90
11505;DHT22;5809;53.262;10.408;2023-05-14T09:48:17;23.70;99.90
11505;DHT22;5809;53.262;10.408;2023-05-14T09:50:45;23.40;99.90
11505;DHT22;5809;53.262;10.408;2023-05-14T09:53:13;22.50;99.90
11505;DHT22;5809;53.262;10.408;2023-05-14T09:55:41;21.90;99.90
11505;DHT22;5809;53.262;10.408;2023-05-14T09:58:08;21.90;99.90
11505;DHT22;5809;53.262;10.408;2023-05-14T10:00:35;22.80;99.90
11505;DHT22;5809;53.262;10.408;2023-05-14T10:03:04;23.50;99.90
11505;DHT22;5809;53.262;10.408;2023-05-14T10:05:34;24.30;99.90
11505;DHT22;5809;53.262;10.408;2023-05-14T10:08:04;23.60;99.90
11505;DHT22;5809;53.262;10.408;2023-05-14T10:10:32;22.90;99.90
11505;DHT22;5809;53.262;10.408;2023-05-14T10:13:04;22.10;99.90
11505;DHT22;5809;53.262;10.408;2023-05-14T10:15:36;22.10;99.90
11505;DHT22;5809;53.262;10.408;2023-05-14T10:18:09;23.30;99.90
11505;DHT22;5809;53.262;10.408;2023-05-14T10:20:37;24.30;99.90
11505;DHT22;5809;53.262;10.408;2023-05-14T10:23:05;23.40;99.90
11505;DHT22;5809;53.262;10.408;2023-05-14T10:25:32;23.00;99.90
11505;DHT22;5809;53.262;10.408;2023-05-14T10:27:59;23.20;99.90
11505;DHT22;5809;53.262;10.408;2023-05-14T10:30:28;23.80;99.90
11505;DHT22;5809;53.262;10.408;2023-05-14T10:33:05;23.70;99.90
11505;DHT22;5809;53.262;10.408;2023-05-14T10:35:50;23.90;99.90
11505;DHT22;5809;53.262;10.408;2023-05-14T10:38:17;23.50;99.90
11505;DHT22;5809;53.262;10.408;2023-05-14T10:40:47;23.90;99.90
11505;DHT22;5809;53.262;10.408;2023-05-14T10:43:15;23.60;99.90
11505;DHT22;5809;53.262;10.408;2023-05-14T10:45:44;22.60;99.90
11505;DHT22;5809;53.262;10.408;2023-05-14T10:48:11;22.80;99.90
11505;DHT22;5809;53.262;10.408;2023-05-14T10:50:38;22.90;99.90
11505;DHT22;5809;53.262;10.408;2023-05-14T10:53:09;22.60;99.90
11505;DHT22;5809;53.262;10.408;2023-05-14T10:55:38;21.80;99.90
11505;DHT22;5809;53.262;10.408;2023-05-14T10:58:05;21.40;99.90
11505;DHT22;5809;53.262;10.408;2023-05-14T11:00:33;21.40;99.90
11505;DHT22;5809;53.262;10.408;2023-05-14T11:03:03;21.20;99.90
11505;DHT22;5809;53.262;10.408;2023-05-14T11:05:31;21.20;99.90
11505;DHT22;5809;53.262;10.408;2023-05-14T11:08:02;21.40;99.90
11505;DHT22;5809;53.262;10.408;2023-05-14T11:10:31;21.70;99.90
11505;DHT22;5809;53.262;10.408;2023-05-14T11:12:59;21.80;99.90
11505;DHT22;5809;53.262;10.408;2023-05-14T11:15:26;21.50;99.90
11505;DHT22;5809;53.262;10.408;2023-05-14T11:17:53;21.30;99.90
11505;DHT22;5809;53.262;10.408;2023-05-14T11:20:22;21.20;99.90
11505;DHT22;5809;53.262;10.408;2023-05-14T11:22:49;21.20;99.90
11505;DHT22;5809;53.262;10.408;2023-05-14T11:25:17;21.00;99.90
11505;DHT22;5809;53.262;10.408;2023-05-14T11:27:44;20.70;99.90
11505;DHT22;5809;53.262;10.408;2023-05-14T11:30:13;20.40;99.90
11505;DHT22;5809;53.262;10.408;2023-05-14T11:32:41;20.40;99.90
11505;DHT22;5809;53.262;10.408;2023-05-14T11:35:09;20.50;99.90
11505;DHT22;5809;53.262;10.408;2023-05-14T11:37:37;20.70;99.90
11505;DHT22;5809;53.262;10.408;2023-05-14T11:40:07;21.00;99.90
11505;DHT22;5809;53.262;10.408;2023-05-14T11:42:35;21.20;99.90
11505;DHT22;5809;53.262;10.408;2023-05-14T11:45:03;21.00;99.90
11505;DHT22;5809;53.262;10.408;2023-05-14T11:47:30;21.00;99.90
11505;DHT22;5809;53.262;10.408;2023-05-14T11:49:58;21.10;99.90
11505;DHT22;5809;53.262;10.408;2023-05-14T11:52:26;21.00;99.90
11505;DHT22;5809;53.262;10.408;2023-05-14T11:54:54;21.00;99.90
11505;DHT22;5809;53.262;10.408;2023-05-14T11:57:22;21.10;99.90
11505;DHT22;5809;53.262;10.408;2023-05-14T11:59:54;21.10;99.90
11505;DHT22;5809;53.262;10.408;2023-05-14T12:02:22;21.10;99.90
11505;DHT22;5809;53.262;10.408;2023-05-14T12:04:52;21.20;99.90
11505;DHT22;5809;53.262;10.408;2023-05-14T12:07:19;21.00;99.90
11505;DHT22;5809;53.262;10.408;2023-05-14T12:09:48;21.10;99.90
11505;DHT22;5809;53.262;10.408;2023-05-14T12:12:17;21.30;99.90
11505;DHT22;5809;53.262;10.408;2023-05-14T12:14:45;21.20;99.90
11505;DHT22;5809;53.262;10.408;2023-05-14T12:17:14;21.30;99.90
11505;DHT22;5809;53.262;10.408;2023-05-14T12:19:42;21.40;99.90
11505;DHT22;5809;53.262;10.408;2023-05-14T12:22:10;21.10;99.90
11505;DHT22;5809;53.262;10.408;2023-05-14T12:24:37;21.00;99.90
11505;DHT22;5809;53.262;10.408;2023-05-14T12:27:05;21.20;99.90
11505;DHT22;5809;53.262;10.408;2023-05-14T12:29:36;21.40;99.90
11505;DHT22;5809;53.262;10.408;2023-05-14T12:32:07;21.30;99.90
11505;DHT22;5809;53.262;10.408;2023-05-14T12:34:36;21.10;99.90
11505;DHT22;5809;53.262;10.408;2023-05-14T12:37:03;20.90;99.90
11505;DHT22;5809;53.262;10.408;2023-05-14T12:39:32;20.80;99.90
11505;DHT22;5809;53.262;10.408;2023-05-14T12:41:59;20.90;99.90
11505;DHT22;5809;53.262;10.408;2023-05-14T12:44:26;20.80;99.90
11505;DHT22;5809;53.262;10.408;2023-05-14T12:46:54;20.90;99.90
11505;DHT22;5809;53.262;10.408;2023-05-14T12:49:22;21.10;99.90
11505;DHT22;5809;53.262;10.408;2023-05-14T12:51:49;21.50;99.90
11505;DHT22;5809;53.262;10.408;2023-05-14T12:54:16;21.40;99.90
11505;DHT22;5809;53.262;10.408;2023-05-14T12:56:42;21.50;99.90
11505;DHT22;5809;53.262;10.408;2023-05-14T12:59:10;21.70;99.90
11505;DHT22;5809;53.262;10.408;2023-05-14T13:01:37;21.30;99.90
11505;DHT22;5809;53.262;10.408;2023-05-14T13:04:05;21.50;99.90
11505;DHT22;5809;53.262;10.408;2023-05-14T13:06:33;21.50;99.90
11505;DHT22;5809;53.262;10.408;2023-05-14T13:09:00;22.10;99.90
11505;DHT22;5809;53.262;10.408;2023-05-14T13:11:28;22.10;99.90
11505;DHT22;5809;53.262;10.408;2023-05-14T13:13:56;22.30;99.90
11505;DHT22;5809;53.262;10.408;2023-05-14T13:16:24;22.20;99.90
11505;DHT22;5809;53.262;10.408;2023-05-14T13:18:51;22.30;99.90
11505;DHT22;5809;53.262;10.408;2023-05-14T13:21:19;22.30;99.90
11505;DHT22;5809;53.262;10.408;2023-05-14T13:23:46;22.40;99.90
11505;DHT22;5809;53.262;10.408;2023-05-14T13:26:13;23.40;99.90
11505;DHT22;5809;53.262;10.408;2023-05-14T13:28:40;23.00;99.90
11505;DHT22;5809;53.262;10.408;2023-05-14T13:31:08;22.70;99.90
11505;DHT22;5809;53.262;10.408;2023-05-14T13:33:37;23.30;99.90
11505;DHT22;5809;53.262;10.408;2023-05-14T13:36:04;23.10;99.90
11505;DHT22;5809;53.262;10.408;2023-05-14T13:38:32;24.70;99.90
11505;DHT22;5809;53.262;10.408;2023-05-14T13:41:00;25.90;99.90
11505;DHT22;5809;53.262;10.408;2023-05-14T13:43:28;24.90;99.90
11505;DHT22;5809;53.262;10.408;2023-05-14T13:45:55;25.60;97.70
11505;DHT22;5809;53.262;10.408;2023-05-14T13:48:22;27.80;1.00
11505;DHT22;5809;53.262;10.408;2023-05-14T13:50:49;27.20;99.90
11505;DHT22;5809;53.262;10.408;2023-05-14T13:53:17;26.70;99.90
11505;DHT22;5809;53.262;10.408;2023-05-14T13:55:46;27.20;96.20
11505;DHT22;5809;53.262;10.408;2023-05-14T13:58:13;26.40;99.90
11505;DHT22;5809;53.262;10.408;2023-05-14T14:00:40;26.80;99.90
11505;DHT22;5809;53.262;10.408;2023-05-14T14:03:07;26.70;99.90
11505;DHT22;5809;53.262;10.408;2023-05-14T14:05:34;27.80;99.90
11505;DHT22;5809;53.262;10.408;2023-05-14T14:08:01;29.50;1.00
11505;DHT22;5809;53.262;10.408;2023-05-14T14:10:28;27.90;1.00
11505;DHT22;5809;53.262;10.408;2023-05-14T14:12:56;25.30;1.00
11505;DHT22;5809;53.262;10.408;2023-05-14T14:15:23;25.00;99.90
11505;DHT22;5809;53.262;10.408;2023-05-14T14:17:50;25.20;99.90
11505;DHT22;5809;53.262;10.408;2023-05-14T14:20:17;26.30;99.90
11505;DHT22;5809;53.262;10.408;2023-05-14T14:22:44;26.50;99.90
11505;DHT22;5809;53.262;10.408;2023-05-14T14:25:11;26.30;99.90
11505;DHT22;5809;53.262;10.408;2023-05-14T14:27:38;25.20;99.90
11505;DHT22;5809;53.262;10.408;2023-05-14T14:30:09;25.00;99.90
11505;DHT22;5809;53.262;10.408;2023-05-14T14:32:40;25.20;99.90
11505;DHT22;5809;53.262;10.408;2023-05-14T14:35:09;24.50;99.90
11505;DHT22;5809;53.262;10.408;2023-05-14T14:37:36;24.50;99.90
11505;DHT22;5809;53.262;10.408;2023-05-14T14:40:03;24.00;99.90
11505;DHT22;5809;53.262;10.408;2023-05-14T14:42:31;23.90;99.90
11505;DHT22;5809;53.262;10.408;2023-05-14T14:44:58;23.50;99.90
11505;DHT22;5809;53.262;10.408;2023-05-14T14:47:26;23.30;99.90
11505;DHT22;5809;53.262;10.408;2023-05-14T14:49:54;23.20;99.90
11505;DHT22;5809;53.262;10.408;2023-05-14T14:52:22;23.90;99.90
11505;DHT22;5809;53.262;10.408;2023-05-14T14:54:49;24.30;99.90
11505;DHT22;5809;53.262;10.408;2023-05-14T14:57:16;24.40;99.90
11505;DHT22;5809;53.262;10.408;2023-05-14T14:59:43;24.40;99.90
11505;DHT22;5809;53.262;10.408;2023-05-14T15:02:11;23.60;99.90
11505;DHT22;5809;53.262;10.408;2023-05-14T15:04:39;24.10;99.90
11505;DHT22;5809;53.262;10.408;2023-05-14T15:07:06;24.50;99.90
11505;DHT22;5809;53.262;10.408;2023-05-14T15:09:33;25.00;99.90
11505;DHT22;5809;53.262;10.408;2023-05-14T15:12:00;25.20;99.90
11505;DHT22;5809;53.262;10.408;2023-05-14T15:14:27;25.30;99.90
11505;DHT22;5809;53.262;10.408;2023-05-14T15:16:53;25.10;99.90
11505;DHT22;5809;53.262;10.408;2023-05-14T15:19:20;24.90;99.90
11505;DHT22;5809;53.262;10.408;2023-05-14T15:21:49;25.10;99.90
11505;DHT22;5809;53.262;10.408;2023-05-14T15:24:16;24.80;99.90
11505;DHT22;5809;53.262;10.408;2023-05-14T15:26:43;24.60;99.90
11505;DHT22;5809;53.262;10.408;2023-05-14T15:29:10;24.50;99.90
11505;DHT22;5809;53.262;10.408;2023-05-14T15:31:37;24.40;99.90
11505;DHT22;5809;53.262;10.408;2023-05-14T15:34:04;24.50;99.90
11505;DHT22;5809;53.262;10.408;2023-05-14T15:36:31;24.50;99.90
11505;DHT22;5809;53.262;10.408;2023-05-14T15:38:59;24.30;99.90
11505;DHT22;5809;53.262;10.408;2023-05-14T15:41:26;24.40;99.90
11505;DHT22;5809;53.262;10.408;2023-05-14T15:43:54;24.50;99.90
11505;DHT22;5809;53.262;10.408;2023-05-14T15:46:22;24.50;99.90
11505;DHT22;5809;53.262;10.408;2023-05-14T15:48:50;24.30;99.90
11505;DHT22;5809;53.262;10.408;2023-05-14T15:51:17;23.90;99.90
11505;DHT22;5809;53.262;10.408;2023-05-14T15:53:43;23.40;99.90
11505;DHT22;5809;53.262;10.408;2023-05-14T15:56:12;23.10;99.90
11505;DHT22;5809;53.262;10.408;2023-05-14T15:58:39;22.60;99.90
11505;DHT22;5809;53.262;10.408;2023-05-14T16:01:06;22.20;99.90
11505;DHT22;5809;53.262;10.408;2023-05-14T16:03:32;22.00;99.90
11505;DHT22;5809;53.262;10.408;2023-05-14T16:05:59;21.90;99.90